Time;durP1;ratioP1;P1;durP2;ratioP2;P2;SDS_P1;SDS_P2;PMS_P1;PMS_P2;Temp;Humidity;BMP_temperature;BMP_pressure;BME280_temperature;BME280_humidity;BME280_pressure;Samples;Min_cycle;Max_cycle;Signal;HPM_P1;HPM_P2
2023/12/26 00:01:35;;;;;;;;;8.00;6.25;;;;;-143.90;100.00;74932.41;4898928;28;108542;-72
2023/12/26 00:04:02;;;;;;;;;7.00;6.00;;;;;-143.90;100.00;74932.41;4899043;28;105229;-73
2023/12/26 00:06:29;;;;;;;;;4.00;4.00;;;;;-143.90;100.00;74928.28;4894697;28;102069;-73
2023/12/26 00:08:55;;;;;;;;;4.00;4.00;;;;;-143.90;100.00;74920.00;4878860;28;102621;-73
2023/12/26 00:11:23;;;;;;;;;7.00;4.50;;;;;-143.90;100.00;74920.00;4898271;28;104113;-72
2023/12/26 00:13:49;;;;;;;;;5.25;3.50;;;;;-143.90;100.00;74915.88;4899557;28;101945;-73
2023/12/26 00:16:17;;;;;;;;;5.75;5.75;;;;;-143.90;100.00;74915.88;4895376;28;103594;-73
2023/12/26 00:18:44;;;;;;;;;4.50;3.00;;;;;-143.90;100.00;74905.53;4888227;28;102176;-74
2023/12/26 00:21:13;;;;;;;;;3.00;3.00;;;;;-143.90;100.00;74909.66;4902463;28;104429;-73
2023/12/26 00:23:39;;;;;;;;;4.00;3.00;;;;;-143.90;100.00;74911.72;4903653;28;102209;-73
2023/12/26 00:26:06;;;;;;;;;4.75;3.00;;;;;-143.90;100.00;74911.72;4899595;28;103900;-72
2023/12/26 00:28:33;;;;;;;;;5.50;5.00;;;;;-143.90;100.00;74907.59;4890493;28;104884;-72
2023/12/26 00:31:00;;;;;;;;;3.50;3.50;;;;;-143.90;100.00;74903.47;4897838;28;104023;-73
2023/12/26 00:33:27;;;;;;;;;3.50;2.25;;;;;-143.90;100.00;74895.19;4898515;28;102346;-73
2023/12/26 00:35:56;;;;;;;;;4.00;3.50;;;;;-143.90;100.00;74895.19;4896736;28;102411;-73
2023/12/26 00:38:23;;;;;;;;;7.25;6.50;;;;;-143.90;100.00;74895.19;4899238;28;102737;-73
2023/12/26 00:40:50;;;;;;;;;7.00;5.00;;;;;-143.90;100.00;74895.19;4865771;28;104406;-73
2023/12/26 00:43:16;;;;;;;;;7.00;4.00;;;;;-143.90;100.00;74895.19;4896123;28;101981;-73
2023/12/26 00:45:43;;;;;;;;;3.75;3.75;;;;;-143.90;100.00;74899.34;4898065;28;102478;-73
2023/12/26 00:48:11;;;;;;;;;3.00;2.00;;;;;-143.90;100.00;74899.34;4902025;28;102521;-74
2023/12/26 00:50:41;;;;;;;;;3.75;3.00;;;;;-143.90;100.00;74891.06;4885293;28;108757;-73
2023/12/26 00:53:09;;;;;;;;;2.25;2.00;;;;;-143.90;100.00;74895.19;4899487;28;102295;-73
2023/12/26 00:55:36;;;;;;;;;3.00;3.00;;;;;-143.90;100.00;74891.06;4893020;28;104793;-73
2023/12/26 00:58:03;;;;;;;;;2.75;2.75;;;;;-143.90;100.00;74882.78;4899700;28;102674;-73
2023/12/26 01:00:30;;;;;;;;;2.00;1.25;;;;;-143.90;100.00;74884.88;4888390;28;104186;-73
2023/12/26 01:02:57;;;;;;;;;6.75;4.00;;;;;-143.90;100.00;74889.00;4888958;28;103679;-74
2023/12/26 01:05:24;;;;;;;;;3.00;3.00;;;;;-143.90;100.00;74891.06;4895419;28;102494;-73
2023/12/26 01:07:51;;;;;;;;;3.00;2.00;;;;;-143.90;100.00;74891.06;4895745;28;102503;-74
2023/12/26 01:10:17;;;;;;;;;3.25;2.75;;;;;-143.90;100.00;74891.06;4895611;28;104481;-72
2023/12/26 01:12:44;;;;;;;;;4.50;3.00;;;;;-143.90;100.00;74891.06;4890516;28;104319;-74
2023/12/26 01:15:11;;;;;;;;;3.75;2.75;;;;;-143.90;100.00;74886.94;4897644;28;102961;-73
2023/12/26 01:17:38;;;;;;;;;2.50;2.00;;;;;-143.90;100.00;74882.78;4895134;28;102511;-74
2023/12/26 01:20:05;;;;;;;;;3.75;3.00;;;;;-143.90;100.00;74884.88;4895366;28;104301;-74
2023/12/26 01:22:32;;;;;;;;;3.50;2.00;;;;;-143.90;100.00;74884.88;4892300;28;102311;-73
2023/12/26 01:24:59;;;;;;;;;4.25;3.50;;;;;-143.90;100.00;74884.88;4894594;28;102145;-73
2023/12/26 01:27:25;;;;;;;;;3.00;2.50;;;;;-143.90;100.00;74889.00;4901833;28;102219;-73
2023/12/26 01:29:52;;;;;;;;;2.50;2.00;;;;;-143.90;100.00;74886.94;4899337;28;103790;-74
2023/12/26 01:32:19;;;;;;;;;2.00;1.50;;;;;-143.90;100.00;74882.78;4898561;28;102298;-74
2023/12/26 01:34:46;;;;;;;;;2.00;2.00;;;;;-143.90;100.00;74880.72;4881370;28;104309;-74
2023/12/26 01:37:12;;;;;;;;;3.50;3.00;;;;;-143.90;100.00;74882.78;4899310;28;102548;-73
2023/12/26 01:39:39;;;;;;;;;5.25;3.00;;;;;-143.90;100.00;74880.72;4901507;28;104402;-73
2023/12/26 01:42:06;;;;;;;;;2.00;1.00;;;;;-143.90;100.00;74874.53;4897787;28;103608;-74
2023/12/26 01:44:32;;;;;;;;;2.75;2.75;;;;;-143.90;100.00;74870.38;4887754;28;102672;-73
2023/12/26 01:47:00;;;;;;;;;1.00;1.00;;;;;-143.90;100.00;74864.19;4894383;28;102936;-74
2023/12/26 01:49:27;;;;;;;;;3.75;3.75;;;;;-143.90;100.00;74872.47;4896324;28;104306;-74
2023/12/26 01:51:55;;;;;;;;;3.25;3.00;;;;;-143.90;100.00;74868.31;4900209;28;102575;-74
2023/12/26 01:54:28;;;;;;;;;3.00;3.00;;;;;-143.90;100.00;74866.25;4895155;28;103167;-74
2023/12/26 01:56:54;;;;;;;;;3.00;3.00;;;;;-143.90;100.00;74862.13;4895351;28;104588;-72
2023/12/26 01:59:22;;;;;;;;;3.00;2.75;;;;;-143.90;100.00;74864.19;4898510;28;103284;-72
2023/12/26 02:01:49;;;;;;;;;3.00;2.00;;;;;-143.90;100.00;74864.19;4876402;28;103170;-74
2023/12/26 02:04:16;;;;;;;;;3.00;3.00;;;;;-143.90;100.00;74860.06;4871282;28;111497;-73
2023/12/26 02:06:42;;;;;;;;;2.75;2.75;;;;;-143.90;100.00;74843.53;4881758;28;102101;-72
2023/12/26 02:09:12;;;;;;;;;3.25;3.00;;;;;-143.90;100.00;74841.44;4895543;28;104380;-74
2023/12/26 02:11:39;;;;;;;;;1.00;1.00;;;;;-143.90;100.00;74845.59;4892753;28;102622;-73
2023/12/26 02:14:07;;;;;;;;;3.00;2.00;;;;;-143.90;100.00;74849.72;4895362;28;102644;-73
2023/12/26 02:16:36;;;;;;;;;3.00;3.00;;;;;-143.90;100.00;74841.44;4892982;28;103940;-74
2023/12/26 02:19:04;;;;;;;;;3.00;3.00;;;;;-143.90;100.00;74837.31;4896888;28;104030;-73
2023/12/26 02:21:32;;;;;;;;;2.00;2.00;;;;;-143.90;100.00;74841.44;4895001;28;102103;-74
2023/12/26 02:23:59;;;;;;;;;3.75;3.00;;;;;-143.90;100.00;74841.44;4897873;28;102180;-73
2023/12/26 02:26:28;;;;;;;;;2.00;2.00;;;;;-143.90;100.00;74837.31;4896553;28;103028;-72
2023/12/26 02:28:57;;;;;;;;;2.00;2.00;;;;;-143.90;100.00;74829.03;4885983;28;104069;-73
2023/12/26 02:31:27;;;;;;;;;2.00;1.50;;;;;-143.90;100.00;74818.72;4900873;28;102921;-73
2023/12/26 02:33:54;;;;;;;;;1.00;1.00;;;;;-143.90;100.00;74816.66;4899132;28;102538;-72
2023/12/26 02:36:22;;;;;;;;;4.00;2.00;;;;;-143.90;100.00;74816.66;4898893;28;102200;-73
2023/12/26 02:38:48;;;;;;;;;2.00;1.50;;;;;-143.90;100.00;74814.56;4885885;28;104163;-73
2023/12/26 02:41:15;;;;;;;;;2.00;2.00;;;;;-143.90;100.00;74808.38;4897691;28;102311;-73
2023/12/26 02:43:41;;;;;;;;;3.00;3.00;;;;;-143.90;100.00;74806.31;4899724;28;103643;-74
2023/12/26 02:46:08;;;;;;;;;2.50;1.50;;;;;-143.90;100.00;74804.25;4897959;28;102680;-72
2023/12/26 02:48:35;;;;;;;;;2.00;1.00;;;;;-143.90;100.00;74800.09;4889771;28;104166;-72
2023/12/26 02:51:06;;;;;;;;;2.50;2.00;;;;;-143.90;100.00;74795.97;4898915;28;103981;-73
2023/12/26 02:53:33;;;;;;;;;1.00;1.00;;;;;-143.90;100.00;74795.97;4897736;28;102491;-74
2023/12/26 02:55:59;;;;;;;;;2.25;1.75;;;;;-143.90;100.00;74802.16;4901380;28;102438;-73
2023/12/26 02:58:26;;;;;;;;;2.00;1.00;;;;;-143.90;100.00;74802.16;4896395;28;104061;-73
2023/12/26 03:00:53;;;;;;;;;2.50;2.50;;;;;-143.90;100.00;74806.31;4887604;28;102467;-74
2023/12/26 03:03:19;;;;;;;;;2.50;1.25;;;;;-143.90;100.00;74795.97;4892784;28;102595;-75
2023/12/26 03:05:46;;;;;;;;;2.00;2.00;;;;;-143.90;100.00;74795.97;4896053;28;102147;-73
2023/12/26 03:08:14;;;;;;;;;3.00;2.00;;;;;-143.90;100.00;74795.97;4899472;28;104789;-74
2023/12/26 03:10:41;;;;;;;;;2.00;2.00;;;;;-143.90;100.00;74789.78;4893084;28;102532;-73
2023/12/26 03:13:07;;;;;;;;;2.25;2.00;;;;;-143.90;100.00;74791.84;4902328;28;104747;-73
2023/12/26 03:15:34;;;;;;;;;3.00;2.00;;;;;-143.90;100.00;74791.84;4897434;28;104461;-73
2023/12/26 03:18:00;;;;;;;;;2.00;1.00;;;;;-143.90;100.00;74791.84;4900203;28;104358;-74
2023/12/26 03:20:27;;;;;;;;;2.75;2.00;;;;;-143.90;100.00;74791.84;4896261;28;103874;-73
2023/12/26 03:22:54;;;;;;;;;2.00;2.00;;;;;-143.90;100.00;74789.78;4890141;28;102084;-73
2023/12/26 03:25:21;;;;;;;;;3.50;2.50;;;;;-143.90;100.00;74783.56;4899570;28;102133;-74
2023/12/26 03:27:49;;;;;;;;;3.00;3.00;;;;;-143.90;100.00;74783.56;4896123;28;104300;-74
2023/12/26 03:30:16;;;;;;;;;3.75;2.75;;;;;-143.90;100.00;74779.44;4899300;28;102622;-73
2023/12/26 03:32:44;;;;;;;;;2.00;2.00;;;;;-143.90;100.00;74775.31;4889069;28;102472;-74
2023/12/26 03:35:11;;;;;;;;;3.00;3.00;;;;;-143.90;100.00;74769.09;4904429;28;102559;-74
2023/12/26 03:37:38;;;;;;;;;3.00;2.75;;;;;-143.90;100.00;74767.03;4900367;28;108985;-73
2023/12/26 03:40:06;;;;;;;;;2.50;2.00;;;;;-143.90;100.00;74767.03;4899198;28;104524;-73
2023/12/26 03:42:34;;;;;;;;;2.00;1.25;;;;;-143.90;100.00;74752.56;4891240;28;102065;-73
2023/12/26 03:45:00;;;;;;;;;1.00;1.00;;;;;-143.90;100.00;74754.63;4896664;28;102199;-74
2023/12/26 03:47:27;;;;;;;;;1.25;1.00;;;;;-143.90;100.00;74750.50;4893710;28;103984;-74
2023/12/26 03:49:54;;;;;;;;;3.00;3.00;;;;;-143.90;100.00;74744.28;4898529;28;103117;-74
2023/12/26 03:52:21;;;;;;;;;2.00;2.00;;;;;-143.90;100.00;74748.44;4886338;28;102414;-74
2023/12/26 03:54:47;;;;;;;;;3.00;2.00;;;;;-143.90;100.00;74746.34;4885110;28;102435;-73
2023/12/26 03:57:14;;;;;;;;;2.00;2.00;;;;;-143.90;100.00;74746.34;4897868;28;104201;-73
2023/12/26 03:59:41;;;;;;;;;1.25;1.00;;;;;-143.90;100.00;74744.28;4899741;28;102447;-74
2023/12/26 04:02:08;;;;;;;;;1.25;1.25;;;;;-143.90;100.00;74744.28;4895123;28;102660;-74
2023/12/26 04:04:35;;;;;;;;;0.00;0.00;;;;;-143.90;100.00;74740.16;4891425;28;104377;-74
2023/12/26 04:07:02;;;;;;;;;2.25;2.00;;;;;-143.90;100.00;74733.97;4896849;28;104040;-73
2023/12/26 04:09:29;;;;;;;;;1.00;1.00;;;;;-143.90;100.00;74736.03;4895444;28;102762;-73
2023/12/26 04:11:55;;;;;;;;;2.75;2.00;;;;;-143.90;100.00;74727.75;4893683;28;102303;-74
2023/12/26 04:14:22;;;;;;;;;4.00;2.00;;;;;-143.90;100.00;74729.81;4898230;28;102257;-74
2023/12/26 04:16:48;;;;;;;;;2.75;2.00;;;;;-143.90;100.00;74723.63;4888410;28;104020;-73
2023/12/26 04:19:15;;;;;;;;;2.00;2.00;;;;;-143.90;100.00;74721.56;4897215;28;103715;-74
2023/12/26 04:21:42;;;;;;;;;2.00;2.00;;;;;-143.90;100.00;74723.63;4899045;28;102610;-73
2023/12/26 04:24:08;;;;;;;;;1.00;1.00;;;;;-143.90;100.00;74721.56;4897168;28;102508;-73
2023/12/26 04:26:36;;;;;;;;;1.00;1.00;;;;;-143.90;100.00;74713.28;4885394;28;104441;-74
2023/12/26 04:29:03;;;;;;;;;2.00;1.00;;;;;-143.90;100.00;74705.00;4897278;28;102346;-73
2023/12/26 04:31:30;;;;;;;;;2.00;1.25;;;;;-143.90;100.00;74705.00;4896012;28;102934;-73
2023/12/26 04:33:56;;;;;;;;;2.50;2.00;;;;;-143.90;100.00;74707.09;4896150;28;102509;-74
2023/12/26 04:36:23;;;;;;;;;2.00;1.75;;;;;-143.90;100.00;74696.75;4892449;28;104294;-73
2023/12/26 04:38:50;;;;;;;;;1.00;1.00;;;;;-143.90;100.00;74692.63;4884128;28;102227;-74
2023/12/26 04:41:16;;;;;;;;;2.00;2.00;;;;;-143.90;100.00;74688.47;4898181;28;102315;-73
2023/12/26 04:43:43;;;;;;;;;2.25;2.25;;;;;-143.90;100.00;74682.28;4899068;28;102249;-73
2023/12/26 04:46:18;;;;;;;;;1.00;1.00;;;;;-143.90;100.00;74680.22;4901325;28;108746;-74
2023/12/26 04:48:45;;;;;;;;;3.25;2.00;;;;;-143.90;100.00;74690.53;4888894;28;102508;-74
2023/12/26 04:51:18;;;;;;;;;1.00;1.00;;;;;-143.90;100.00;74686.41;4901273;28;102790;-74
2023/12/26 04:53:51;;;;;;;;;1.00;1.00;;;;;-143.90;100.00;74690.53;4897902;28;101959;-74
2023/12/26 04:56:19;;;;;;;;;2.00;1.00;;;;;-143.90;100.00;74698.81;4897300;28;104696;-74
2023/12/26 04:58:47;;;;;;;;;1.00;1.00;;;;;-143.90;100.00;74690.53;4886323;28;104760;-74
2023/12/26 05:01:18;;;;;;;;;1.00;1.00;;;;;-143.90;100.00;74696.75;4900890;28;102070;-74
2023/12/26 05:03:46;;;;;;;;;2.00;2.00;;;;;-143.90;100.00;74684.34;4903633;28;102746;-75
2023/12/26 05:06:18;;;;;;;;;1.00;1.00;;;;;-143.90;100.00;74684.34;4901382;28;105363;-73
2023/12/26 05:08:45;;;;;;;;;3.00;2.00;;;;;-143.90;100.00;74688.47;4872980;28;103056;-73
2023/12/26 05:11:22;;;;;;;;;2.50;2.00;;;;;-143.90;100.00;74676.06;4900122;28;102708;-73
2023/12/26 05:13:50;;;;;;;;;2.00;2.00;;;;;-143.90;100.00;74671.94;4900867;28;102530;-73
2023/12/26 05:16:17;;;;;;;;;1.50;1.50;;;;;-143.90;100.00;74676.06;4900256;28;104179;-74
2023/12/26 05:18:44;;;;;;;;;3.00;2.00;;;;;-143.90;100.00;74680.22;4885245;28;102447;-74
2023/12/26 05:21:18;;;;;;;;;1.25;1.25;;;;;-143.90;100.00;74674.00;4902148;28;104728;-73
2023/12/26 05:23:46;;;;;;;;;2.25;1.50;;;;;-143.90;100.00;74671.94;4896785;28;102396;-73
2023/12/26 05:26:14;;;;;;;;;3.00;2.00;;;;;-143.90;100.00;74688.47;4901818;28;104239;-73
2023/12/26 05:28:40;;;;;;;;;3.00;3.00;;;;;-143.90;100.00;74686.41;4889862;28;102911;-73
2023/12/26 05:31:08;;;;;;;;;1.25;1.25;;;;;-143.90;100.00;74676.06;4898788;28;102195;-74
2023/12/26 05:33:35;;;;;;;;;3.50;3.50;;;;;-143.90;100.00;74684.34;4901739;28;103796;-74
2023/12/26 05:36:02;;;;;;;;;1.00;1.00;;;;;-143.90;100.00;74688.47;4899445;28;103704;-74
2023/12/26 05:38:29;;;;;;;;;3.00;3.00;;;;;-143.90;100.00;74678.16;4898095;28;102062;-74
2023/12/26 05:40:56;;;;;;;;;2.00;1.75;;;;;-143.90;100.00;74676.06;4895314;28;102121;-74
2023/12/26 05:43:23;;;;;;;;;2.00;2.00;;;;;-143.90;100.00;74671.94;4900337;28;102383;-76
2023/12/26 05:45:50;;;;;;;;;3.00;2.00;;;;;-143.90;100.00;74678.16;4899564;28;104013;-74
2023/12/26 05:48:17;;;;;;;;;1.75;1.75;;;;;-143.90;100.00;74667.81;4897261;28;102566;-74
2023/12/26 05:50:43;;;;;;;;;3.00;1.00;;;;;-143.90;100.00;74671.94;4891930;28;102124;-74
2023/12/26 05:53:11;;;;;;;;;3.00;2.00;;;;;-143.90;100.00;74663.66;4890813;28;102210;-73
2023/12/26 05:55:37;;;;;;;;;3.00;1.00;;;;;-143.90;100.00;74655.41;4894501;28;104085;-75
2023/12/26 05:58:04;;;;;;;;;2.50;2.00;;;;;-143.90;100.00;74661.59;4899930;28;102992;-74
2023/12/26 06:00:31;;;;;;;;;1.00;1.00;;;;;-143.90;100.00;74653.34;4895703;28;104324;-76
2023/12/26 06:02:57;;;;;;;;;1.00;1.00;;;;;-143.90;100.00;74659.53;4896540;28;102707;-74
2023/12/26 06:05:24;;;;;;;;;2.00;1.25;;;;;-143.90;100.00;74663.66;4896238;28;104227;-74
2023/12/26 06:07:51;;;;;;;;;4.00;3.00;;;;;-143.90;100.00;74657.47;4896502;28;102107;-74
2023/12/26 06:10:18;;;;;;;;;3.50;3.50;;;;;-143.90;100.00;74640.94;4902320;28;102747;-74
2023/12/26 06:12:45;;;;;;;;;6.25;3.25;;;;;-143.90;100.00;74647.13;4894520;28;102573;-75
2023/12/26 06:15:11;;;;;;;;;1.25;1.00;;;;;-143.90;100.00;74649.19;4903980;28;104528;-75
2023/12/26 06:17:38;;;;;;;;;2.00;2.00;;;;;-143.90;100.00;74651.28;4902383;28;103222;-73
2023/12/26 06:20:07;;;;;;;;;2.00;2.00;;;;;-143.90;100.00;74649.19;4900550;28;102635;-74
2023/12/26 06:22:34;;;;;;;;;4.00;3.00;;;;;-143.90;100.00;74645.06;4881323;28;102432;-74
2023/12/26 06:25:01;;;;;;;;;3.75;2.25;;;;;-143.90;100.00;74647.13;4900933;28;105484;-74
2023/12/26 06:27:27;;;;;;;;;3.00;2.00;;;;;-143.90;100.00;74651.28;4898586;28;102805;-74
2023/12/26 06:29:54;;;;;;;;;0.00;0.00;;;;;-143.90;100.00;74647.13;4901742;28;102177;-74
2023/12/26 06:32:20;;;;;;;;;3.00;2.00;;;;;-143.90;100.00;74634.72;4885483;28;102362;-73
2023/12/26 06:34:47;;;;;;;;;1.50;1.25;;;;;-143.90;100.00;74636.81;4888385;28;104053;-74
2023/12/26 06:37:14;;;;;;;;;2.25;2.00;;;;;-143.90;100.00;74651.28;4902815;28;102235;-74
2023/12/26 06:39:42;;;;;;;;;2.00;2.00;;;;;-143.90;100.00;74636.81;4887929;28;102122;-74
2023/12/26 06:42:11;;;;;;;;;1.00;1.00;;;;;-143.90;100.00;74640.94;4905380;28;102654;-73
2023/12/26 06:44:38;;;;;;;;;1.50;1.00;;;;;-143.90;100.00;74630.59;4892736;28;103757;-73
2023/12/26 06:47:06;;;;;;;;;2.00;2.00;;;;;-143.90;100.00;74630.59;4902107;28;102512;-74
2023/12/26 06:49:32;;;;;;;;;2.00;2.00;;;;;-143.90;100.00;74630.59;4890952;28;103664;-74
2023/12/26 06:52:00;;;;;;;;;2.75;2.00;;;;;-143.90;100.00;74622.34;4903694;28;102595;-73
2023/12/26 06:54:27;;;;;;;;;2.25;2.00;;;;;-143.90;100.00;74632.66;4899225;28;104398;-72
2023/12/26 06:56:53;;;;;;;;;2.00;2.00;;;;;-143.90;100.00;74632.66;4893764;28;101849;-74
2023/12/26 06:59:20;;;;;;;;;3.00;2.00;;;;;-143.90;100.00;74630.59;4903172;28;101914;-73
2023/12/26 07:01:48;;;;;;;;;3.25;3.00;;;;;-143.90;100.00;74640.94;4905643;28;102494;-75
2023/12/26 07:04:14;;;;;;;;;2.00;2.00;;;;;-143.90;100.00;74647.13;4896724;28;104349;-72
2023/12/26 07:06:41;;;;;;;;;3.00;2.00;;;;;-143.90;100.00;74638.88;4892787;28;102444;-72
2023/12/26 07:09:08;;;;;;;;;3.00;2.00;;;;;-143.90;100.00;74645.06;4902998;28;102392;-73
2023/12/26 07:11:34;;;;;;;;;1.50;1.50;;;;;-143.90;100.00;74643.00;4886529;28;102271;-75
2023/12/26 07:14:01;;;;;;;;;1.00;1.00;;;;;-143.90;100.00;74634.72;4885826;28;104588;-74
2023/12/26 07:16:30;;;;;;;;;1.00;1.00;;;;;-143.90;100.00;74626.47;4901835;28;103554;-74
2023/12/26 07:18:58;;;;;;;;;3.00;1.75;;;;;-143.90;100.00;74622.34;4897145;28;102267;-73
2023/12/26 07:21:28;;;;;;;;;1.00;1.00;;;;;-143.90;100.00;74626.47;4904830;28;102996;-75
2023/12/26 07:23:54;;;;;;;;;2.00;1.00;;;;;-143.90;100.00;74626.47;4903768;28;103960;-74
2023/12/26 07:26:24;;;;;;;;;1.00;1.00;;;;;-143.90;100.00;74616.13;4904325;28;102579;-73
2023/12/26 07:28:50;;;;;;;;;3.25;3.00;;;;;-143.90;100.00;74616.13;4889439;28;102394;-73
2023/12/26 07:31:19;;;;;;;;;3.25;2.75;;;;;-143.90;100.00;74620.25;4904292;28;103172;-74
2023/12/26 07:33:47;;;;;;;;;1.75;1.75;;;;;-143.90;100.00;74609.94;4902579;28;104220;-74
2023/12/26 07:36:15;;;;;;;;;3.25;3.00;;;;;-143.90;100.00;74609.94;4902715;28;103301;-72
2023/12/26 07:38:42;;;;;;;;;1.75;1.75;;;;;-143.90;100.00;74605.78;4892380;28;102539;-74
2023/12/26 07:41:08;;;;;;;;;1.00;1.00;;;;;-143.90;100.00;74614.06;4902330;28;102101;-74
2023/12/26 07:43:35;;;;;;;;;4.00;3.00;;;;;-143.90;100.00;74605.78;4903313;28;104413;-74
2023/12/26 07:46:02;;;;;;;;;1.75;1.75;;;;;-143.90;100.00;74605.78;4904305;28;102570;-75
2023/12/26 07:48:30;;;;;;;;;2.50;2.00;;;;;-143.90;100.00;74597.53;4905181;28;102237;-74
2023/12/26 07:50:56;;;;;;;;;2.00;2.00;;;;;-143.90;100.00;74599.59;4880215;28;104766;-73
2023/12/26 07:53:23;;;;;;;;;3.00;2.50;;;;;-143.90;100.00;74599.59;4903801;28;103980;-74
2023/12/26 07:55:50;;;;;;;;;2.00;2.00;;;;;-143.90;100.00;74595.47;4901086;28;102159;-73
2023/12/26 07:58:17;;;;;;;;;1.00;1.00;;;;;-143.90;100.00;74591.31;4903843;28;102421;-73
2023/12/26 08:00:44;;;;;;;;;0.75;0.50;;;;;-143.90;100.00;74585.13;4897511;28;102323;-75
2023/12/26 08:03:15;;;;;;;;;4.75;3.00;;;;;-143.90;100.00;74576.84;4902623;28;108931;-74
2023/12/26 08:05:42;;;;;;;;;1.25;1.25;;;;;-143.90;100.00;74570.66;4903962;28;103014;-74
2023/12/26 08:08:11;;;;;;;;;3.75;3.00;;;;;-143.90;100.00;74576.84;4902330;28;103574;-75
2023/12/26 08:10:38;;;;;;;;;2.00;1.75;;;;;-143.90;100.00;74568.59;4890710;28;102814;-74
2023/12/26 08:13:05;;;;;;;;;2.00;1.75;;;;;-143.90;100.00;74560.31;4899200;28;104280;-74
2023/12/26 08:15:32;;;;;;;;;2.75;2.75;;;;;-143.90;100.00;74552.03;4900086;28;102600;-74
2023/12/26 08:17:58;;;;;;;;;3.00;2.00;;;;;-143.90;100.00;74560.31;4902250;28;102358;-74
2023/12/26 08:20:25;;;;;;;;;3.00;3.00;;;;;-143.90;100.00;74558.25;4900356;28;102122;-75
2023/12/26 08:22:52;;;;;;;;;3.50;3.00;;;;;-143.90;100.00;74566.53;4892008;28;104076;-76
2023/12/26 08:25:19;;;;;;;;;2.00;2.00;;;;;-143.90;100.00;74568.59;4902575;28;102402;-74
2023/12/26 08:27:46;;;;;;;;;2.25;1.00;;;;;-143.90;100.00;74564.44;4900101;28;102551;-75
2023/12/26 08:30:12;;;;;;;;;2.75;2.50;;;;;-143.90;100.00;74560.31;4904876;28;102895;-74
2023/12/26 08:32:39;;;;;;;;;3.00;3.00;;;;;-143.90;100.00;74549.97;4858314;28;108981;-74
2023/12/26 08:35:07;;;;;;;;;3.00;3.00;;;;;-143.90;100.00;74552.03;4842931;28;104426;-74
2023/12/26 08:37:33;;;;;;;;;3.25;2.00;;;;;-143.90;100.00;74564.44;4862808;28;102684;-74
2023/12/26 08:40:00;;;;;;;;;4.00;3.75;;;;;-143.90;100.00;74554.13;4819539;28;103490;-75
2023/12/26 08:42:27;;;;;;;;;3.75;3.00;;;;;-143.90;100.00;74560.31;4823744;28;104616;-75
2023/12/26 08:44:53;;;;;;;;;1.25;1.25;;;;;-143.90;100.00;74556.19;4807313;28;103519;-74
2023/12/26 08:47:20;;;;;;;;;4.00;3.75;;;;;-143.90;100.00;74558.25;4820774;28;102097;-74
2023/12/26 08:49:47;;;;;;;;;2.00;2.00;;;;;-143.90;100.00;74558.25;4821931;28;103497;-74
2023/12/26 08:52:14;;;;;;;;;2.00;1.75;;;;;-143.90;100.00;74560.31;4821037;28;104278;-73
2023/12/26 08:54:43;;;;;;;;;2.00;1.25;;;;;-143.90;100.00;74572.72;4802987;28;103602;-75
2023/12/26 08:57:10;;;;;;;;;3.00;2.00;;;;;-143.90;100.00;74560.31;4817470;28;108704;-74
2023/12/26 08:59:37;;;;;;;;;3.00;2.00;;;;;-143.90;100.00;74589.25;4819052;28;104117;-74
2023/12/26 09:02:03;;;;;;;;;3.00;2.00;;;;;-143.90;100.00;74572.72;4821969;28;104169;-74
2023/12/26 09:04:30;;;;;;;;;3.25;2.00;;;;;-143.90;100.00;74574.78;4836576;28;103493;-73
2023/12/26 09:06:57;;;;;;;;;2.00;2.00;;;;;-143.90;100.00;74578.91;4814660;28;103567;-73
2023/12/26 09:09:26;;;;;;;;;1.00;1.00;;;;;-143.90;100.00;74578.91;4815135;28;103301;-73
2023/12/26 09:11:56;;;;;;;;;2.75;2.75;;;;;-143.90;100.00;74578.91;4826798;28;105175;-73
2023/12/26 09:14:23;;;;;;;;;1.75;1.75;;;;;-143.90;100.00;74585.13;4842378;28;103614;-74
2023/12/26 09:16:49;;;;;;;;;3.50;1.50;;;;;-143.90;100.00;74581.00;4812739;28;103684;-74
2023/12/26 09:19:16;;;;;;;;;4.00;4.00;;;;;-143.90;100.00;74585.13;4874387;28;104281;-73
2023/12/26 09:21:43;;;;;;;;;2.00;1.25;;;;;-143.90;100.00;74581.00;4821219;28;105092;-74
2023/12/26 09:24:10;;;;;;;;;3.00;2.75;;;;;-143.90;100.00;74576.84;4821245;28;103617;-74
2023/12/26 09:26:37;;;;;;;;;4.00;3.00;;;;;-143.90;100.00;74578.91;4803900;28;105098;-75
2023/12/26 09:29:05;;;;;;;;;6.50;5.00;;;;;-143.90;100.00;74576.84;4820437;28;103413;-74
2023/12/26 09:31:31;;;;;;;;;21.75;17.00;;;;;-143.90;100.00;74570.66;4839582;28;105394;-74
2023/12/26 09:33:58;;;;;;;;;13.00;9.50;;;;;-143.90;100.00;74566.53;4820717;28;103429;-73
2023/12/26 09:36:25;;;;;;;;;3.00;3.00;;;;;-143.90;100.00;74581.00;4819072;28;103612;-73
2023/12/26 09:38:51;;;;;;;;;14.00;10.25;;;;;-143.90;100.00;74564.44;4807167;28;102709;-75
2023/12/26 09:41:23;;;;;;;;;29.00;23.50;;;;;-143.90;100.00;74560.31;4879638;28;105247;-74
2023/12/26 09:43:50;;;;;;;;;27.50;24.25;;;;;-143.90;100.00;74562.38;4898401;28;102613;-73
2023/12/26 09:46:17;;;;;;;;;10.00;8.00;;;;;-143.90;100.00;74556.19;4901143;28;102310;-74
2023/12/26 09:48:45;;;;;;;;;4.50;4.00;;;;;-143.90;100.00;74566.53;4891293;28;102303;-73
2023/12/26 09:51:22;;;;;;;;;9.75;6.00;;;;;-143.90;100.00;74560.31;4899760;28;108775;-73
2023/12/26 09:53:57;;;;;;;;;12.50;10.00;;;;;-143.90;100.00;74556.19;4898534;28;102693;-74
2023/12/26 09:56:25;;;;;;;;;6.00;6.00;;;;;-143.90;100.00;74549.97;4866515;28;102550;-74
2023/12/26 09:58:56;;;;;;;;;4.00;3.25;;;;;-143.90;100.00;74564.44;4818340;28;103403;-75
2023/12/26 10:01:23;;;;;;;;;4.50;3.50;;;;;-143.90;100.00;74547.91;4824410;28;105771;-72
2023/12/26 10:03:50;;;;;;;;;6.00;4.75;;;;;-143.90;100.00;74537.56;4824328;28;103606;-74
2023/12/26 10:06:17;;;;;;;;;3.50;3.25;;;;;-143.90;100.00;74543.78;4824023;28;103395;-74
2023/12/26 10:08:44;;;;;;;;;3.50;2.25;;;;;-143.90;100.00;74527.25;4817345;28;103554;-72
2023/12/26 10:11:12;;;;;;;;;2.50;1.00;;;;;-143.90;100.00;74506.56;4868858;28;108511;-73
2023/12/26 10:13:44;;;;;;;;;4.25;4.00;;;;;-143.90;100.00;74504.50;4826345;28;103349;-74
2023/12/26 10:16:11;;;;;;;;;3.50;2.50;;;;;-143.90;100.00;74506.56;4827569;28;105265;-74
2023/12/26 10:18:39;;;;;;;;;2.00;2.00;;;;;-143.90;100.00;74485.91;4813007;28;104082;-75
2023/12/26 10:21:06;;;;;;;;;4.00;3.00;;;;;-143.90;100.00;74485.91;4822206;28;104066;-73
2023/12/26 10:23:34;;;;;;;;;4.75;3.25;;;;;-143.90;100.00;74477.63;4826530;28;103853;-72
2023/12/26 10:26:01;;;;;;;;;4.00;4.00;;;;;-143.90;100.00;74485.91;4809723;28;103869;-73
2023/12/26 10:28:28;;;;;;;;;4.25;3.00;;;;;-143.90;100.00;74506.56;4826077;28;103588;-73
2023/12/26 10:30:55;;;;;;;;;4.00;4.00;;;;;-143.90;100.00;74506.56;4812689;28;104447;-72
2023/12/26 10:33:26;;;;;;;;;4.75;3.00;;;;;-143.90;100.00;74523.09;4824382;28;103547;-74
2023/12/26 10:36:04;;;;;;;;;3.00;3.00;;;;;-143.90;100.00;74554.13;4857043;28;103044;-73
2023/12/26 10:38:31;;;;;;;;;11.00;8.50;;;;;-143.90;100.00;74552.03;4825841;28;103506;-73
2023/12/26 10:41:00;;;;;;;;;8.50;7.50;;;;;-143.90;100.00;74547.91;4850275;28;103770;-73
2023/12/26 10:43:29;;;;;;;;;4.75;4.75;;;;;-143.90;100.00;74564.44;4822707;28;103542;-74
2023/12/26 10:46:00;;;;;;;;;6.00;5.00;;;;;-143.90;100.00;74556.19;4822183;28;103469;-74
2023/12/26 10:48:32;;;;;;;;;4.25;4.00;;;;;-143.90;100.00;74560.31;4815033;28;103604;-74
2023/12/26 10:51:00;;;;;;;;;2.75;2.75;;;;;-143.90;100.00;74564.44;4829198;28;104149;-74
2023/12/26 10:53:38;;;;;;;;;6.25;4.50;;;;;-143.90;100.00;74568.59;4828887;28;103146;-75
2023/12/26 10:56:06;;;;;;;;;3.00;2.75;;;;;-143.90;100.00;74587.19;4830554;28;103779;-73
2023/12/26 10:58:34;;;;;;;;;6.50;6.50;;;;;-143.90;100.00;74589.25;4861648;28;103317;-75
2023/12/26 11:01:01;;;;;;;;;10.00;8.50;;;;;-143.90;100.00;74587.19;4815485;28;104631;-73
2023/12/26 11:03:28;;;;;;;;;8.00;5.00;;;;;-143.90;100.00;74609.94;4829252;28;103421;-75